createdAt,value
2022-12-26T00:00:27.621Z,45.13
2022-12-26T00:03:17.028Z,42.75
2022-12-26T00:05:46.747Z,41.50
2022-12-26T00:08:16.241Z,42.85
2022-12-26T00:10:45.689Z,40.35
2022-12-26T00:13:39.875Z,43.33
2022-12-26T00:16:07.793Z,39.50
2022-12-26T00:21:06.275Z,39.67
2022-12-26T00:23:36.114Z,42.10
2022-12-26T00:26:06.379Z,43.37
2022-12-26T00:28:36.822Z,44.53
2022-12-26T00:31:07.420Z,43.45
2022-12-26T00:33:37.309Z,41.80
2022-12-26T00:36:08.831Z,43.63
2022-12-26T00:38:38.263Z,40.65
2022-12-26T00:41:08.299Z,39.15
2022-12-26T00:43:37.721Z,37.55
2022-12-26T00:46:07.654Z,38.10
2022-12-26T00:48:37.853Z,35.25
2022-12-26T00:51:07.273Z,35.00
2022-12-26T00:53:37.055Z,35.05
2022-12-26T00:56:07.019Z,32.90
2022-12-26T00:58:36.893Z,31.50
2022-12-26T01:01:08.207Z,33.05
2022-12-26T01:03:37.846Z,34.45
2022-12-26T01:06:07.584Z,32.70
2022-12-26T01:08:37.217Z,28.77
2022-12-26T01:11:08.160Z,32.90
2022-12-26T01:13:37.879Z,31.23
2022-12-26T01:16:07.993Z,33.20
2022-12-26T01:18:37.681Z,29.55
2022-12-26T01:21:08.742Z,29.85
2022-12-26T01:23:38.276Z,33.75
2022-12-26T01:26:18.577Z,30.50
2022-12-26T01:28:53.704Z,32.30
2022-12-26T01:31:23.759Z,34.00
2022-12-26T01:33:53.481Z,34.10
2022-12-26T01:36:26.585Z,33.35
2022-12-26T01:38:56.388Z,32.05
2022-12-26T01:41:26.413Z,27.05
2022-12-26T01:43:57.627Z,35.50
2022-12-26T01:46:28.981Z,34.30
2022-12-26T01:49:01.070Z,30.75
2022-12-26T01:51:34.111Z,31.50
2022-12-26T01:54:37.179Z,33.77
2022-12-26T01:56:54.666Z,34.05
2022-12-26T01:59:26.823Z,33.90
2022-12-26T02:01:56.367Z,31.00
2022-12-26T02:04:47.990Z,31.20
2022-12-26T02:07:17.545Z,30.90
2022-12-26T02:09:46.854Z,33.40
2022-12-26T02:12:34.977Z,29.35
2022-12-26T02:15:10.571Z,30.00
2022-12-26T02:17:40.854Z,31.42
2022-12-26T02:20:27.360Z,31.20
2022-12-26T02:23:05.817Z,30.50
2022-12-26T02:25:46.801Z,31.45
2022-12-26T02:28:25.884Z,26.80
2022-12-26T02:30:57.378Z,30.55
2022-12-26T02:33:41.053Z,30.45
2022-12-26T02:36:24.804Z,27.05
2022-12-26T02:39:03.058Z,28.55
2022-12-26T02:41:58.901Z,25.70
2022-12-26T02:44:49.421Z,26.80
2022-12-26T02:47:22.338Z,25.50
2022-12-26T02:50:17.634Z,28.55
2022-12-26T02:53:10.712Z,29.65
2022-12-26T02:56:00.427Z,27.35
2022-12-26T02:58:48.875Z,26.57
2022-12-26T03:01:41.100Z,28.67
2022-12-26T03:04:30.556Z,26.90
2022-12-26T03:07:19.875Z,27.85
2022-12-26T03:10:08.049Z,28.20
2022-12-26T03:12:58.441Z,28.47
2022-12-26T03:15:50.299Z,28.65
2022-12-26T03:18:57.789Z,28.60
2022-12-26T03:21:12.136Z,28.80
2022-12-26T03:23:43.384Z,30.10
2022-12-26T03:26:33.769Z,28.67
2022-12-26T03:29:19.133Z,29.75
2022-12-26T03:31:49.118Z,30.55
2022-12-26T03:34:18.643Z,30.30
2022-12-26T03:36:55.807Z,35.30
2022-12-26T03:39:54.211Z,42.75
2022-12-26T03:42:44.732Z,40.05
2022-12-26T03:45:47.423Z,44.50
2022-12-26T03:48:38.792Z,42.23
2022-12-26T03:51:28.646Z,48.20
2022-12-26T03:54:20.930Z,43.63
2022-12-26T03:57:11.059Z,44.23
2022-12-26T04:00:03.369Z,44.70
2022-12-26T04:03:01.993Z,48.25
2022-12-26T04:05:51.005Z,49.75
2022-12-26T04:08:42.352Z,48.50
2022-12-26T04:11:31.525Z,48.53
2022-12-26T04:14:23.300Z,51.07
2022-12-26T04:17:09.293Z,44.23
2022-12-26T04:19:48.534Z,52.30
2022-12-26T04:22:43.396Z,44.57
2022-12-26T04:25:50.861Z,41.90
2022-12-26T04:28:39.704Z,45.93
2022-12-26T04:31:29.245Z,39.75
2022-12-26T04:34:19.437Z,40.10
2022-12-26T04:37:09.463Z,41.55
2022-12-26T04:39:59.668Z,43.23
2022-12-26T04:42:48.560Z,39.85
2022-12-26T04:45:19.077Z,40.57
2022-12-26T04:48:04.114Z,45.33
2022-12-26T04:50:33.532Z,38.50
2022-12-26T04:53:03.081Z,46.33
2022-12-26T04:55:33.121Z,41.90
2022-12-26T04:58:02.492Z,42.35
2022-12-26T05:00:31.904Z,39.93
2022-12-26T05:03:20.722Z,43.85
2022-12-26T05:06:09.847Z,40.60
2022-12-26T05:08:59.092Z,40.67
2022-12-26T05:11:29.739Z,41.95
2022-12-26T05:13:59.814Z,39.55
2022-12-26T05:16:48.028Z,40.10
2022-12-26T05:19:36.422Z,40.70
2022-12-26T05:22:28.611Z,40.10
2022-12-26T05:25:21.468Z,40.40
2022-12-26T05:28:10.754Z,43.55
2022-12-26T05:30:40.939Z,45.30
2022-12-26T05:33:28.317Z,43.23
2022-12-26T05:35:58.150Z,38.47
2022-12-26T05:38:27.425Z,42.90
2022-12-26T05:40:56.901Z,41.30
2022-12-26T05:43:26.270Z,43.77
2022-12-26T05:45:55.850Z,40.40
2022-12-26T05:48:25.410Z,40.50
2022-12-26T05:50:57.774Z,41.20
2022-12-26T05:55:55.456Z,44.25
2022-12-26T05:58:24.742Z,41.60
2022-12-26T06:01:03.595Z,40.40
2022-12-26T06:03:34.941Z,39.03
2022-12-26T06:06:04.768Z,42.90
2022-12-26T06:08:34.224Z,44.90
2022-12-26T06:11:05.254Z,47.37
2022-12-26T06:13:38.122Z,44.20
2022-12-26T06:16:08.586Z,48.35
2022-12-26T06:18:38.102Z,45.80
2022-12-26T06:21:08.464Z,49.50
2022-12-26T06:23:38.159Z,45.60
2022-12-26T06:26:09.673Z,46.93
2022-12-26T06:28:40.018Z,44.75
2022-12-26T06:31:10.737Z,45.75
2022-12-26T06:33:40.307Z,43.75
2022-12-26T06:36:10.597Z,43.10
2022-12-26T06:38:40.039Z,44.15
2022-12-26T06:41:12.354Z,46.50
2022-12-26T06:43:41.694Z,47.35
2022-12-26T06:46:13.214Z,44.80
2022-12-26T06:48:43.167Z,43.28
2022-12-26T06:51:14.006Z,42.70
2022-12-26T06:53:44.500Z,42.83
2022-12-26T06:56:15.167Z,44.07
2022-12-26T06:58:45.182Z,42.40
2022-12-26T07:01:17.326Z,43.87
2022-12-26T07:03:51.622Z,44.57
2022-12-26T07:06:26.022Z,46.30
2022-12-26T07:08:58.259Z,43.45
2022-12-26T07:13:56.985Z,45.23
2022-12-26T07:16:27.107Z,47.15
2022-12-26T07:20:14.317Z,46.20
2022-12-26T07:22:52.284Z,45.40
2022-12-26T07:25:22.086Z,45.95
2022-12-26T07:27:53.861Z,46.30
2022-12-26T07:30:23.081Z,47.48
2022-12-26T07:32:52.524Z,45.55
2022-12-26T07:35:21.991Z,43.93
2022-12-26T07:37:52.124Z,47.83
2022-12-26T07:40:21.386Z,52.10
2022-12-26T07:42:54.240Z,47.15
2022-12-26T07:45:23.622Z,46.60
2022-12-26T07:47:53.921Z,47.45
2022-12-26T07:50:23.572Z,43.50
2022-12-26T07:52:54.518Z,47.30
2022-12-26T07:55:24.726Z,51.23
2022-12-26T07:57:54.192Z,46.80
2022-12-26T08:03:48.663Z,57.23
2022-12-26T08:06:20.534Z,66.63
2022-12-26T08:08:51.389Z,62.73
2022-12-26T08:11:22.503Z,60.30
2022-12-26T08:13:52.462Z,62.17
2022-12-26T08:16:21.793Z,60.67
2022-12-26T08:18:51.360Z,50.37
2022-12-26T08:21:21.847Z,51.50
2022-12-26T08:23:52.696Z,46.90
2022-12-26T08:26:23.278Z,50.70
2022-12-26T08:29:14.783Z,50.10
2022-12-26T08:32:28.747Z,49.17
2022-12-26T08:35:12.404Z,47.10
2022-12-26T08:37:41.682Z,47.60
2022-12-26T08:40:12.862Z,48.85
2022-12-26T08:42:56.266Z,48.65
2022-12-26T08:45:33.875Z,49.70
2022-12-26T08:48:03.961Z,50.15
2022-12-26T08:50:36.579Z,49.05
2022-12-26T08:53:10.712Z,45.15
2022-12-26T08:55:40.890Z,39.70
2022-12-26T08:58:10.741Z,40.10
2022-12-26T09:00:43.485Z,43.35
2022-12-26T09:03:12.964Z,37.80
2022-12-26T09:05:42.654Z,40.53
2022-12-26T09:08:12.435Z,38.43
2022-12-26T09:10:41.848Z,40.95
2022-12-26T09:13:19.157Z,39.75
2022-12-26T09:15:52.827Z,39.25
2022-12-26T09:18:22.863Z,39.80
2022-12-26T09:20:52.864Z,40.57
2022-12-26T09:23:22.525Z,36.07
2022-12-26T09:25:52.690Z,36.53
2022-12-26T09:28:51.475Z,37.80
2022-12-26T09:31:56.842Z,36.55
2022-12-26T09:50:48.920Z,28.65
2022-12-26T09:53:19.787Z,27.35
2022-12-26T09:55:53.078Z,29.70
2022-12-26T09:58:25.854Z,28.05
2022-12-26T10:00:58.833Z,25.10
2022-12-26T10:03:38.272Z,27.60
2022-12-26T10:06:12.912Z,25.90
2022-12-26T10:11:29.964Z,25.40
2022-12-26T10:14:28.136Z,22.15
2022-12-26T10:17:47.812Z,22.47
2022-12-26T10:20:35.579Z,24.60
2022-12-26T10:23:24.923Z,23.65
2022-12-26T10:29:21.641Z,23.65
2022-12-26T10:31:54.230Z,21.20
2022-12-26T10:34:25.863Z,24.67
2022-12-26T10:36:57.430Z,22.43
2022-12-26T10:39:28.524Z,22.77
2022-12-26T10:41:59.949Z,22.97
2022-12-26T10:44:29.290Z,22.95
2022-12-26T10:47:15.977Z,26.17
2022-12-26T10:49:46.064Z,21.67
2022-12-26T10:52:17.343Z,22.03
2022-12-26T10:54:47.993Z,22.60
2022-12-26T10:57:18.293Z,26.63
2022-12-26T10:59:48.945Z,24.73
2022-12-26T11:02:24.440Z,25.20
2022-12-26T11:05:27.173Z,22.50
2022-12-26T11:07:56.813Z,24.90
2022-12-26T11:10:28.233Z,24.23
2022-12-26T11:13:00.140Z,22.53
2022-12-26T11:15:31.968Z,19.85
2022-12-26T11:18:10.006Z,16.20
2022-12-26T11:20:39.905Z,15.10
2022-12-26T11:23:21.262Z,14.33
2022-12-26T11:29:06.374Z,17.60
2022-12-26T11:31:36.314Z,17.57
2022-12-26T11:34:09.143Z,13.60
2022-12-26T11:36:51.907Z,13.72
2022-12-26T11:39:23.238Z,14.20
2022-12-26T11:41:53.264Z,16.37
2022-12-26T11:47:16.133Z,17.50
2022-12-26T11:49:51.293Z,15.35
2022-12-26T11:52:43.961Z,15.65
2022-12-26T11:55:30.330Z,16.30
2022-12-26T11:58:06.626Z,14.68
2022-12-26T12:00:46.428Z,15.32
2022-12-26T12:03:26.007Z,17.45
2022-12-26T12:06:02.993Z,15.32
2022-12-26T12:12:04.367Z,14.85
2022-12-26T12:22:28.008Z,16.32
2022-12-26T12:59:16.163Z,17.83
2022-12-26T13:01:51.584Z,16.17
2022-12-26T13:04:24.700Z,16.95
2022-12-26T13:07:08.190Z,19.02
2022-12-26T13:10:00.877Z,19.67
2022-12-26T13:13:07.018Z,19.00
2022-12-26T13:22:56.885Z,20.85
2022-12-26T13:32:58.613Z,15.80
2022-12-26T13:35:52.621Z,15.58
2022-12-26T13:38:23.437Z,16.45
2022-12-26T13:43:44.215Z,18.95
2022-12-26T13:46:34.210Z,16.65
2022-12-26T13:58:09.079Z,17.17
2022-12-26T14:01:06.152Z,17.62
2022-12-26T14:04:47.567Z,17.45
2022-12-26T14:21:53.733Z,16.20
2022-12-26T14:25:24.900Z,13.90
2022-12-26T15:51:56.674Z,20.20
2022-12-26T15:58:40.462Z,17.70
2022-12-26T16:01:34.294Z,20.25
2022-12-26T16:26:20.410Z,27.48
2022-12-26T16:42:23.985Z,49.63
2022-12-26T16:48:27.744Z,49.63
2022-12-26T16:51:46.775Z,56.57
2022-12-26T16:54:46.653Z,63.55
2022-12-26T17:07:49.553Z,112.50
2022-12-26T17:16:35.027Z,157.93
2022-12-26T17:19:24.802Z,160.25
2022-12-26T17:22:14.272Z,121.70
2022-12-26T17:24:48.604Z,83.30
2022-12-26T17:28:00.082Z,56.65
2022-12-26T17:30:38.572Z,40.75
2022-12-26T17:33:16.579Z,38.02
2022-12-26T17:38:50.166Z,36.55
2022-12-26T17:52:28.923Z,46.70
2022-12-26T17:59:20.277Z,57.10
2022-12-26T18:01:49.956Z,58.10
2022-12-26T18:04:22.899Z,62.67
2022-12-26T18:06:53.259Z,69.12
2022-12-26T18:09:25.208Z,67.95
2022-12-26T18:11:55.333Z,58.73
2022-12-26T18:14:24.766Z,60.07
2022-12-26T18:16:54.635Z,56.40
2022-12-26T18:19:24.410Z,51.83
2022-12-26T18:21:53.972Z,45.53
2022-12-26T18:24:23.201Z,45.07
2022-12-26T18:26:52.559Z,47.13
2022-12-26T18:29:23.227Z,46.20
2022-12-26T18:31:52.798Z,47.57
2022-12-26T18:34:22.763Z,48.77
2022-12-26T18:36:53.775Z,44.07
2022-12-26T18:39:24.675Z,48.13
2022-12-26T18:41:54.840Z,58.70
2022-12-26T18:44:24.198Z,61.90
2022-12-26T18:46:54.854Z,55.25
2022-12-26T18:49:25.397Z,54.37
2022-12-26T18:51:54.761Z,52.00
2022-12-26T18:54:24.205Z,51.50
2022-12-26T18:56:53.544Z,51.15
2022-12-26T18:59:22.864Z,56.30
2022-12-26T19:01:52.445Z,48.17
2022-12-26T19:04:21.825Z,52.05
2022-12-26T19:06:52.962Z,50.75
2022-12-26T19:09:22.689Z,51.07
2022-12-26T19:11:52.186Z,55.80
2022-12-26T19:14:22.673Z,69.70
2022-12-26T19:16:52.190Z,63.80
2022-12-26T19:19:25.784Z,63.65
2022-12-26T19:21:55.581Z,62.45
2022-12-26T19:24:24.831Z,59.97
2022-12-26T19:26:54.262Z,57.65
2022-12-26T19:29:24.494Z,57.85
2022-12-26T19:31:55.868Z,61.03
2022-12-26T19:34:25.158Z,56.10
2022-12-26T19:36:54.481Z,61.95
2022-12-26T19:39:24.186Z,59.05
2022-12-26T19:41:54.171Z,55.13
2022-12-26T19:44:23.602Z,54.15
2022-12-26T19:47:12.056Z,51.65
2022-12-26T19:49:42.873Z,49.13
2022-12-26T19:52:12.507Z,46.40
2022-12-26T19:54:41.708Z,46.25
2022-12-26T19:57:11.079Z,44.35
2022-12-26T19:59:40.512Z,46.30
2022-12-26T20:02:11.199Z,47.35
2022-12-26T20:04:40.740Z,43.90
2022-12-26T20:07:10.078Z,49.30
2022-12-26T20:09:39.444Z,40.80
2022-12-26T20:12:08.825Z,44.00
2022-12-26T20:14:39.812Z,39.90
2022-12-26T20:17:11.928Z,46.55
2022-12-26T20:19:43.456Z,54.03
2022-12-26T20:22:13.114Z,56.97
2022-12-26T20:24:42.242Z,54.00
2022-12-26T20:27:11.589Z,47.73
2022-12-26T20:29:40.960Z,46.90
2022-12-26T20:32:10.268Z,43.85
2022-12-26T20:34:39.797Z,43.27
2022-12-26T20:37:09.062Z,46.25
2022-12-26T20:39:38.836Z,46.00
2022-12-26T20:42:08.059Z,40.97
2022-12-26T20:44:40.917Z,44.70
2022-12-26T20:47:10.305Z,39.20
2022-12-26T20:49:39.795Z,50.45
2022-12-26T20:52:09.239Z,49.65
2022-12-26T20:54:38.588Z,49.00
2022-12-26T20:57:07.846Z,47.10
2022-12-26T20:59:37.185Z,46.55
2022-12-26T21:02:06.648Z,46.03
2022-12-26T21:04:36.397Z,46.35
2022-12-26T21:07:05.799Z,46.00
2022-12-26T21:09:40.972Z,46.40
2022-12-26T21:12:15.896Z,42.10
2022-12-26T21:14:45.966Z,41.63
2022-12-26T21:17:18.201Z,42.50
2022-12-26T21:19:47.466Z,43.83
2022-12-26T21:22:16.913Z,45.30
2022-12-26T21:24:46.674Z,39.95
2022-12-26T21:27:16.049Z,40.25
2022-12-26T21:29:45.568Z,38.97
2022-12-26T21:32:14.931Z,40.85
2022-12-26T21:34:44.925Z,42.05
2022-12-26T21:37:32.648Z,40.50
2022-12-26T21:40:01.971Z,42.95
2022-12-26T21:42:31.708Z,56.03
2022-12-26T21:45:00.916Z,88.40
2022-12-26T21:47:30.735Z,101.95
2022-12-26T21:50:00.428Z,102.45
2022-12-26T21:52:29.958Z,99.80
2022-12-26T21:55:17.452Z,102.07
2022-12-26T21:57:46.744Z,83.80
2022-12-26T22:00:17.064Z,87.95
2022-12-26T22:03:04.916Z,78.40
2022-12-26T22:05:36.420Z,83.45
2022-12-26T22:08:08.293Z,82.70
2022-12-26T22:10:57.549Z,94.90
2022-12-26T22:13:27.005Z,94.25
2022-12-26T22:16:06.994Z,84.65
2022-12-26T22:18:38.571Z,64.05
2022-12-26T22:21:09.428Z,57.50
2022-12-26T22:23:39.494Z,50.50
2022-12-26T22:26:10.549Z,51.45
2022-12-26T22:28:40.403Z,43.40
2022-12-26T22:31:16.903Z,44.70
2022-12-26T22:33:46.673Z,47.13
2022-12-26T22:36:16.010Z,44.60
2022-12-26T22:38:45.337Z,41.90
2022-12-26T22:41:15.901Z,44.05
2022-12-26T22:43:46.889Z,45.10
2022-12-26T22:46:16.454Z,43.70
2022-12-26T22:48:45.735Z,39.95
2022-12-26T22:51:17.087Z,40.75
2022-12-26T22:53:47.128Z,45.13
2022-12-26T22:56:16.398Z,42.10
2022-12-26T22:58:45.652Z,39.75
2022-12-26T23:01:15.773Z,44.15
2022-12-26T23:03:46.077Z,44.30
2022-12-26T23:06:22.665Z,43.95
2022-12-26T23:08:54.481Z,39.80
2022-12-26T23:11:28.799Z,40.10
2022-12-26T23:14:05.069Z,38.57
2022-12-26T23:16:38.307Z,39.50
2022-12-26T23:19:30.562Z,37.55
2022-12-26T23:22:00.897Z,39.45
2022-12-26T23:24:31.500Z,35.50
2022-12-26T23:27:21.884Z,39.85
2022-12-26T23:30:10.095Z,38.87
2022-12-26T23:32:40.204Z,39.50
2022-12-26T23:35:10.457Z,38.80
2022-12-26T23:37:40.204Z,34.80
2022-12-26T23:40:11.497Z,40.13
2022-12-26T23:42:41.305Z,38.97
2022-12-26T23:45:11.627Z,42.70
2022-12-26T23:47:42.251Z,37.60
2022-12-26T23:50:12.254Z,40.85
2022-12-26T23:52:41.895Z,38.77
2022-12-26T23:55:11.840Z,40.43
2022-12-26T23:57:41.226Z,39.85
